Time;durP1;ratioP1;P1;durP2;ratioP2;P2;SDS_P1;SDS_P2;PMS_P1;PMS_P2;Temp;Humidity;BMP_temperature;BMP_pressure;BME280_temperature;BME280_humidity;BME280_pressure;Samples;Min_cycle;Max_cycle;Signal;HPM_P1;HPM_P2
2022/10/07 00:01:10;;;;;;;5.50;5.00;;;14.50;99.90;;;;;;5051087;28;20220;-88
2022/10/07 00:03:39;;;;;;;7.45;4.72;;;14.50;99.90;;;;;;5050946;28;20221;-87
2022/10/07 00:06:12;;;;;;;4.68;4.28;;;14.40;99.90;;;;;;5051115;28;20206;-86
2022/10/07 00:08:42;;;;;;;5.32;4.90;;;14.40;99.90;;;;;;5050496;28;20226;-87
2022/10/07 00:11:12;;;;;;;5.38;4.88;;;14.40;99.90;;;;;;5050599;28;20227;-88
2022/10/07 00:13:42;;;;;;;5.38;4.88;;;14.40;99.90;;;;;;5050695;28;20213;-87
2022/10/07 00:16:12;;;;;;;6.53;4.97;;;14.30;99.90;;;;;;5050504;28;20205;-87
2022/10/07 00:18:42;;;;;;;5.72;5.22;;;14.30;99.90;;;;;;5050757;28;20217;-87
2022/10/07 00:21:13;;;;;;;6.20;5.60;;;14.30;99.90;;;;;;5050616;28;20214;-85
2022/10/07 00:23:43;;;;;;;9.00;4.95;;;14.30;99.90;;;;;;5050590;28;20236;-86
2022/10/07 00:26:14;;;;;;;9.02;5.63;;;14.20;99.90;;;;;;5050670;28;20218;-85
2022/10/07 00:28:43;;;;;;;4.55;4.25;;;14.20;99.90;;;;;;5050505;28;20213;-87
2022/10/07 00:31:14;;;;;;;5.63;5.13;;;14.20;99.90;;;;;;5050891;28;20212;-86
2022/10/07 00:33:42;;;;;;;5.53;5.03;;;14.20;99.90;;;;;;5050431;28;20202;-86
2022/10/07 00:36:14;;;;;;;8.50;5.43;;;14.20;99.90;;;;;;5050323;28;20217;-86
2022/10/07 00:38:42;;;;;;;5.85;5.18;;;14.20;99.90;;;;;;5050473;28;20205;-86
2022/10/07 00:41:18;;;;;;;4.57;4.15;;;14.20;99.90;;;;;;5050072;28;20216;-86
2022/10/07 00:43:46;;;;;;;5.68;5.13;;;14.10;99.90;;;;;;5050139;28;20248;-87
2022/10/07 00:46:22;;;;;;;6.43;5.35;;;14.10;99.90;;;;;;5050292;28;20206;-86
2022/10/07 00:48:51;;;;;;;5.75;5.20;;;14.10;99.90;;;;;;5049908;28;20300;-87
2022/10/07 00:51:21;;;;;;;4.95;4.55;;;14.10;99.90;;;;;;5050498;28;20205;-87
2022/10/07 00:53:52;;;;;;;10.70;5.68;;;14.10;99.90;;;;;;5050370;28;20246;-87
2022/10/07 00:56:21;;;;;;;6.43;5.18;;;14.00;99.90;;;;;;5054180;28;20217;-87
2022/10/07 00:58:51;;;;;;;5.82;5.28;;;14.00;99.90;;;;;;5054317;28;20209;-87
2022/10/07 01:01:20;;;;;;;5.80;5.20;;;14.00;99.90;;;;;;5054217;28;20268;-87
2022/10/07 01:03:49;;;;;;;6.80;5.57;;;14.00;99.90;;;;;;5053431;28;20226;-87
2022/10/07 01:06:17;;;;;;;7.65;5.30;;;14.00;99.90;;;;;;5054175;28;20214;-87
2022/10/07 01:08:49;;;;;;;4.82;4.30;;;13.90;99.90;;;;;;5053694;28;20213;-87
2022/10/07 01:11:28;;;;;;;5.32;4.82;;;13.90;99.90;;;;;;5054294;28;20201;-87
2022/10/07 01:14:07;;;;;;;5.68;5.07;;;13.80;99.90;;;;;;5053717;28;20228;-86
2022/10/07 01:16:46;;;;;;;4.40;4.10;;;13.80;99.90;;;;;;5054120;28;20233;-87
2022/10/07 01:19:41;;;;;;;5.45;4.72;;;13.80;99.90;;;;;;5053526;28;20225;-87
2022/10/07 01:22:19;;;;;;;7.63;6.45;;;13.80;99.90;;;;;;5053670;28;20205;-86
2022/10/07 01:25:02;;;;;;;7.82;5.57;;;13.80;99.90;;;;;;5053980;28;20225;-86
2022/10/07 01:27:35;;;;;;;6.22;5.07;;;13.80;99.90;;;;;;5053737;28;20240;-86
2022/10/07 01:30:06;;;;;;;6.20;5.50;;;13.80;99.90;;;;;;5053701;28;20225;-87
2022/10/07 01:32:38;;;;;;;5.45;4.95;;;13.80;99.90;;;;;;5053314;28;20217;-86
2022/10/07 01:35:11;;;;;;;5.55;5.05;;;13.80;99.90;;;;;;5053505;28;20213;-86
2022/10/07 01:37:45;;;;;;;6.07;5.53;;;13.70;99.90;;;;;;5055365;28;20236;-86
2022/10/07 01:40:19;;;;;;;5.05;4.05;;;13.70;99.90;;;;;;5055549;28;20216;-86
2022/10/07 01:42:50;;;;;;;7.03;4.78;;;13.70;99.90;;;;;;5055824;28;20225;-87
2022/10/07 01:45:20;;;;;;;4.47;4.07;;;13.70;99.90;;;;;;5055702;28;20205;-87
2022/10/07 01:47:49;;;;;;;4.82;4.32;;;13.70;99.90;;;;;;5055510;28;20230;-86
2022/10/07 01:50:20;;;;;;;4.28;3.90;;;13.60;99.90;;;;;;5055650;28;20217;-86
2022/10/07 01:53:14;;;;;;;4.25;3.85;;;13.60;99.90;;;;;;5055705;28;20209;-86
2022/10/07 01:55:53;;;;;;;3.85;3.53;;;13.60;99.90;;;;;;5055853;28;20301;-85
2022/10/07 01:58:40;;;;;;;3.70;3.40;;;13.60;99.90;;;;;;5055333;28;20224;-84
2022/10/07 02:01:17;;;;;;;5.50;3.92;;;13.50;99.90;;;;;;5055509;28;20220;-84
2022/10/07 02:04:03;;;;;;;4.07;3.67;;;13.50;99.90;;;;;;5055300;28;20218;-84
2022/10/07 02:06:41;;;;;;;3.92;3.63;;;13.50;99.90;;;;;;5054198;28;20237;-85
2022/10/07 02:09:20;;;;;;;3.70;3.40;;;13.40;99.90;;;;;;5055239;28;20205;-84
2022/10/07 02:11:55;;;;;;;4.40;4.00;;;13.40;99.90;;;;;;5055045;28;20213;-84
2022/10/07 02:14:30;;;;;;;4.22;3.72;;;13.40;99.90;;;;;;5055390;28;20209;-83
2022/10/07 02:17:03;;;;;;;4.15;3.75;;;13.40;99.90;;;;;;5055269;28;20232;-84
2022/10/07 02:19:34;;;;;;;4.15;3.75;;;13.40;99.90;;;;;;5055043;28;20301;-84
2022/10/07 02:22:05;;;;;;;3.47;3.17;;;13.30;99.90;;;;;;5055103;28;20206;-85
2022/10/07 02:24:35;;;;;;;4.07;3.67;;;13.30;99.90;;;;;;5054814;28;20225;-84
2022/10/07 02:27:07;;;;;;;3.90;3.45;;;13.30;99.90;;;;;;5054852;28;20230;-84
2022/10/07 02:29:39;;;;;;;4.90;4.20;;;13.30;99.90;;;;;;5054831;28;20202;-84
2022/10/07 02:32:11;;;;;;;4.68;3.53;;;13.20;99.90;;;;;;5055425;28;20210;-84
2022/10/07 02:34:44;;;;;;;4.75;4.05;;;13.20;99.90;;;;;;5055039;28;20202;-84
2022/10/07 02:37:18;;;;;;;4.45;4.05;;;13.20;99.90;;;;;;5054779;28;20239;-84
2022/10/07 02:39:46;;;;;;;3.75;3.45;;;13.20;99.90;;;;;;5054430;28;20210;-84
2022/10/07 02:42:24;;;;;;;3.72;3.38;;;13.20;99.90;;;;;;5054813;28;20216;-84
2022/10/07 02:44:58;;;;;;;4.75;3.60;;;13.20;99.90;;;;;;5054291;28;20226;-84
2022/10/07 02:47:30;;;;;;;3.97;3.67;;;13.10;99.90;;;;;;5054595;28;20229;-84
2022/10/07 02:50:03;;;;;;;5.95;4.97;;;13.10;99.90;;;;;;5054507;28;20216;-84
2022/10/07 02:52:33;;;;;;;4.72;4.13;;;13.10;99.90;;;;;;5054361;28;20202;-84
2022/10/07 02:55:05;;;;;;;3.80;3.50;;;13.00;99.90;;;;;;5054615;28;20194;-85
2022/10/07 02:57:38;;;;;;;4.38;3.97;;;13.10;99.90;;;;;;5054282;28;20225;-86
2022/10/07 03:00:10;;;;;;;4.22;3.90;;;13.00;99.90;;;;;;5054200;28;20212;-86
2022/10/07 03:02:44;;;;;;;5.13;4.60;;;13.10;99.90;;;;;;5054694;28;20236;-86
2022/10/07 03:05:18;;;;;;;6.65;5.00;;;13.10;99.90;;;;;;5053939;28;20226;-86
2022/10/07 03:07:48;;;;;;;5.00;4.53;;;13.00;99.90;;;;;;5053965;28;20221;-86
2022/10/07 03:10:17;;;;;;;7.07;6.03;;;13.10;99.90;;;;;;5054141;28;20202;-86
2022/10/07 03:12:45;;;;;;;6.55;5.93;;;13.00;99.90;;;;;;5054065;28;20208;-86
2022/10/07 03:15:15;;;;;;;7.05;6.35;;;13.00;99.90;;;;;;5054233;28;20206;-86
2022/10/07 03:17:43;;;;;;;6.80;6.13;;;13.00;99.90;;;;;;5053811;28;20228;-86
2022/10/07 03:20:14;;;;;;;7.35;6.35;;;13.00;99.90;;;;;;5053836;28;20220;-87
2022/10/07 03:22:42;;;;;;;7.68;6.65;;;13.00;99.90;;;;;;5054089;28;20206;-86
2022/10/07 03:25:11;;;;;;;6.63;6.03;;;13.00;99.90;;;;;;5053466;28;20225;-87
2022/10/07 03:27:41;;;;;;;6.03;5.43;;;13.00;99.90;;;;;;5053558;28;20226;-87
2022/10/07 03:30:12;;;;;;;7.35;5.57;;;13.00;99.90;;;;;;5054077;28;20226;-87
2022/10/07 03:32:42;;;;;;;5.60;5.05;;;13.00;99.90;;;;;;5053664;28;20216;-84
2022/10/07 03:35:10;;;;;;;6.65;5.03;;;13.00;99.90;;;;;;5054002;28;20214;-84
2022/10/07 03:37:38;;;;;;;6.13;4.57;;;13.00;99.90;;;;;;5053548;28;20230;-84
2022/10/07 03:40:07;;;;;;;5.22;4.75;;;13.00;99.90;;;;;;5053548;28;20206;-84
2022/10/07 03:42:36;;;;;;;6.03;5.47;;;12.90;99.90;;;;;;5053386;28;20217;-85
2022/10/07 03:45:05;;;;;;;4.78;4.38;;;12.90;99.90;;;;;;5053394;28;20225;-84
2022/10/07 03:47:34;;;;;;;5.45;4.75;;;12.90;99.90;;;;;;5053663;28;20218;-84
2022/10/07 03:50:04;;;;;;;5.05;4.65;;;12.90;99.90;;;;;;5053265;28;20229;-84
2022/10/07 03:52:35;;;;;;;5.70;5.18;;;12.80;99.90;;;;;;5053709;28;20209;-85
2022/10/07 03:55:04;;;;;;;5.65;5.00;;;12.80;99.90;;;;;;5053369;28;20212;-84
2022/10/07 03:57:50;;;;;;;5.68;4.95;;;12.80;99.90;;;;;;5053308;28;20236;-83
2022/10/07 04:00:27;;;;;;;5.22;4.72;;;12.80;99.90;;;;;;5053477;28;20202;-85
2022/10/07 04:02:55;;;;;;;6.57;5.07;;;12.70;99.90;;;;;;5053652;28;20201;-84
2022/10/07 04:05:25;;;;;;;8.02;5.20;;;12.70;99.90;;;;;;5053084;28;20225;-84
2022/10/07 04:07:53;;;;;;;5.82;5.10;;;12.70;99.90;;;;;;5053414;28;20237;-85
2022/10/07 04:10:21;;;;;;;6.57;4.72;;;12.70;99.90;;;;;;5052880;28;20212;-84
2022/10/07 04:12:50;;;;;;;5.82;5.00;;;12.70;99.90;;;;;;5052915;28;20201;-84
2022/10/07 04:15:21;;;;;;;8.88;5.80;;;12.70;99.90;;;;;;5053182;28;20205;-86
2022/10/07 04:17:55;;;;;;;6.85;5.78;;;12.70;99.90;;;;;;5053110;28;20222;-86
2022/10/07 04:20:23;;;;;;;8.57;7.72;;;12.60;99.90;;;;;;5052755;28;20212;-87
2022/10/07 04:22:52;;;;;;;9.13;8.18;;;12.60;99.90;;;;;;5052632;28;20213;-87
2022/10/07 04:25:37;;;;;;;8.75;7.93;;;12.70;99.90;;;;;;5052398;28;20240;-86
2022/10/07 04:28:07;;;;;;;13.02;10.00;;;12.70;99.90;;;;;;5052898;28;20233;-86
2022/10/07 04:30:42;;;;;;;8.50;7.53;;;12.70;99.90;;;;;;5051737;28;20206;-87
2022/10/07 04:33:12;;;;;;;10.10;8.73;;;12.70;99.90;;;;;;5052657;28;20213;-87
2022/10/07 04:35:40;;;;;;;13.77;9.20;;;12.70;99.90;;;;;;5053085;28;20225;-86
2022/10/07 04:38:11;;;;;;;9.07;8.20;;;12.70;99.90;;;;;;5052960;28;20229;-86
2022/10/07 04:40:40;;;;;;;13.73;8.55;;;12.60;99.90;;;;;;5052616;28;20209;-87
2022/10/07 04:43:19;;;;;;;9.40;7.88;;;12.70;99.90;;;;;;5052483;28;20210;-88
2022/10/07 04:45:49;;;;;;;10.05;7.82;;;12.60;99.90;;;;;;5052318;28;20217;-86
2022/10/07 04:48:19;;;;;;;15.18;8.55;;;12.60;99.90;;;;;;5052448;28;20225;-87
2022/10/07 04:50:50;;;;;;;8.07;7.38;;;12.60;99.90;;;;;;5052716;28;20209;-86
2022/10/07 04:53:20;;;;;;;9.23;8.32;;;12.70;99.90;;;;;;5053091;28;20217;-83
2022/10/07 04:55:51;;;;;;;10.05;9.07;;;12.60;99.90;;;;;;5052440;28;20331;-84
2022/10/07 04:58:20;;;;;;;9.93;8.85;;;12.70;99.90;;;;;;5052153;28;20233;-84
2022/10/07 05:00:50;;;;;;;10.88;9.85;;;12.70;99.90;;;;;;5052660;28;20205;-84
2022/10/07 05:03:20;;;;;;;10.25;9.25;;;12.60;99.90;;;;;;5052652;28;20249;-84
2022/10/07 05:05:51;;;;;;;11.15;10.10;;;12.60;99.90;;;;;;5052375;28;20233;-84
2022/10/07 05:08:23;;;;;;;10.68;9.25;;;12.70;99.90;;;;;;5052089;28;20229;-84
2022/10/07 05:10:55;;;;;;;11.93;10.82;;;12.70;99.90;;;;;;5052100;28;20218;-84
2022/10/07 05:13:25;;;;;;;11.55;10.15;;;12.70;99.90;;;;;;5052232;28;20229;-84
2022/10/07 05:15:55;;;;;;;11.52;10.43;;;12.80;99.90;;;;;;5052372;28;20205;-84
2022/10/07 05:18:25;;;;;;;13.30;11.10;;;12.70;99.90;;;;;;5052148;28;20248;-84
2022/10/07 05:20:53;;;;;;;13.15;11.57;;;12.70;99.90;;;;;;5052463;28;20201;-83
2022/10/07 05:23:25;;;;;;;11.63;10.52;;;12.70;99.90;;;;;;5052266;28;20213;-84
2022/10/07 05:25:59;;;;;;;13.50;12.40;;;12.80;99.90;;;;;;5051883;28;20229;-83
2022/10/07 05:28:29;;;;;;;12.80;11.65;;;12.80;99.90;;;;;;5051992;28;20209;-83
2022/10/07 05:31:02;;;;;;;12.93;11.73;;;12.80;99.90;;;;;;5052362;28;20198;-84
2022/10/07 05:33:30;;;;;;;12.38;11.18;;;12.80;99.90;;;;;;5052079;28;20213;-84
2022/10/07 05:35:58;;;;;;;11.73;10.63;;;12.80;99.90;;;;;;5052040;28;20213;-84
2022/10/07 05:38:28;;;;;;;12.40;10.35;;;12.80;99.90;;;;;;5052152;28;20222;-84
2022/10/07 05:41:01;;;;;;;10.93;10.00;;;12.80;99.90;;;;;;5053435;28;20234;-84
2022/10/07 05:43:31;;;;;;;12.68;11.38;;;12.80;99.90;;;;;;5055829;28;20198;-84
2022/10/07 05:46:01;;;;;;;11.35;10.25;;;12.80;99.90;;;;;;5055699;28;20222;-84
2022/10/07 05:48:31;;;;;;;13.07;11.68;;;12.80;99.90;;;;;;5055631;28;20217;-84
2022/10/07 05:51:07;;;;;;;12.07;10.98;;;12.80;99.90;;;;;;5055523;28;20202;-84
2022/10/07 05:53:39;;;;;;;14.73;12.05;;;12.90;99.90;;;;;;5055835;28;20206;-84
2022/10/07 05:56:11;;;;;;;12.02;10.85;;;12.90;99.90;;;;;;5055634;28;20198;-84
2022/10/07 05:58:39;;;;;;;12.93;11.65;;;12.90;99.90;;;;;;5055643;28;20221;-84
2022/10/07 06:01:14;;;;;;;13.57;11.77;;;13.00;99.90;;;;;;5055422;28;20206;-84
2022/10/07 06:03:42;;;;;;;13.98;10.98;;;13.00;99.90;;;;;;5055586;28;20197;-84
2022/10/07 06:06:11;;;;;;;12.45;11.25;;;13.10;99.90;;;;;;5055093;28;20248;-84
2022/10/07 06:08:41;;;;;;;14.13;12.48;;;13.00;99.90;;;;;;5055259;28;20217;-84
2022/10/07 06:13:58;;;;;;;13.05;11.73;;;13.10;99.90;;;;;;5055181;28;20202;-85
2022/10/07 06:16:27;;;;;;;15.05;12.13;;;13.10;99.90;;;;;;5055164;28;20218;-84
2022/10/07 06:18:56;;;;;;;11.18;10.18;;;13.20;99.90;;;;;;5055079;28;20210;-83
2022/10/07 06:21:26;;;;;;;14.05;12.55;;;13.20;99.90;;;;;;5054975;28;20213;-84
2022/10/07 06:23:57;;;;;;;15.02;10.85;;;13.30;99.90;;;;;;5055135;28;20198;-85
2022/10/07 06:26:26;;;;;;;12.23;10.93;;;13.30;99.90;;;;;;5054517;28;20280;-84
2022/10/07 06:28:54;;;;;;;11.98;10.82;;;13.40;99.90;;;;;;5055033;28;20206;-84
2022/10/07 06:31:24;;;;;;;13.27;10.85;;;13.50;99.90;;;;;;5054937;28;20202;-84
2022/10/07 06:33:53;;;;;;;15.07;10.77;;;13.50;99.90;;;;;;5054789;28;20216;-83
2022/10/07 06:36:22;;;;;;;16.02;10.90;;;13.60;99.90;;;;;;5055145;28;20220;-83
2022/10/07 06:38:51;;;;;;;20.13;11.18;;;13.70;99.90;;;;;;5054652;28;20214;-84
2022/10/07 06:41:21;;;;;;;15.35;13.75;;;13.80;99.90;;;;;;5054937;28;20220;-84
2022/10/07 06:43:54;;;;;;;30.02;15.40;;;13.90;99.90;;;;;;5054680;28;20202;-84
2022/10/07 06:46:22;;;;;;;19.00;17.05;;;13.90;99.90;;;;;;5054479;28;20229;-84
2022/10/07 06:48:51;;;;;;;19.98;17.45;;;13.90;99.90;;;;;;5054345;28;20209;-84
2022/10/07 06:51:20;;;;;;;18.85;16.88;;;13.90;99.90;;;;;;5054730;28;20213;-84
2022/10/07 06:53:52;;;;;;;19.80;17.60;;;14.00;99.90;;;;;;5053879;28;20211;-84
2022/10/07 06:56:22;;;;;;;25.08;17.75;;;14.00;99.90;;;;;;5054352;28;20212;-84
2022/10/07 06:58:50;;;;;;;21.17;18.98;;;14.10;99.90;;;;;;5054559;28;20225;-84
2022/10/07 07:01:19;;;;;;;25.23;19.10;;;14.10;99.90;;;;;;5054006;28;20209;-84
2022/10/07 07:03:47;;;;;;;24.38;19.40;;;14.20;99.90;;;;;;5054416;28;20209;-84
2022/10/07 07:06:16;;;;;;;21.75;19.45;;;14.20;99.90;;;;;;5053985;28;20228;-84
2022/10/07 07:08:44;;;;;;;22.58;20.27;;;14.20;99.90;;;;;;5054523;28;20206;-84
2022/10/07 07:14:03;;;;;;;22.67;19.52;;;14.20;99.90;;;;;;5054418;28;20228;-84
2022/10/07 07:16:32;;;;;;;22.00;19.45;;;14.20;99.90;;;;;;5054304;28;20237;-84
2022/10/07 07:19:02;;;;;;;18.48;16.55;;;14.20;99.90;;;;;;5054065;28;20205;-84
2022/10/07 07:21:32;;;;;;;18.90;16.88;;;14.10;99.90;;;;;;5054592;28;20206;-84
2022/10/07 07:24:01;;;;;;;24.50;17.75;;;14.10;99.90;;;;;;5054075;28;20206;-86
2022/10/07 07:26:30;;;;;;;22.05;17.88;;;14.20;99.90;;;;;;5053778;28;20254;-86
2022/10/07 07:29:00;;;;;;;17.58;15.98;;;14.20;99.90;;;;;;5054463;28;20206;-87
2022/10/07 07:31:31;;;;;;;19.15;17.15;;;14.30;99.90;;;;;;5054363;28;20214;-86
2022/10/07 07:34:02;;;;;;;18.35;16.60;;;14.30;99.90;;;;;;5054015;28;20206;-86
2022/10/07 07:36:32;;;;;;;17.85;16.25;;;14.40;99.90;;;;;;5053917;28;20226;-86
2022/10/07 07:39:02;;;;;;;18.30;16.50;;;14.60;99.90;;;;;;5053827;28;20206;-86
2022/10/07 07:41:32;;;;;;;17.10;15.55;;;14.60;99.90;;;;;;5054085;28;20212;-86
2022/10/07 07:44:03;;;;;;;24.55;16.95;;;14.70;99.90;;;;;;5053877;28;20206;-86
2022/10/07 07:46:37;;;;;;;17.02;15.48;;;14.80;99.90;;;;;;5053434;28;20222;-86
2022/10/07 07:49:06;;;;;;;16.05;14.45;;;14.90;99.90;;;;;;5053183;28;20190;-85
2022/10/07 07:51:34;;;;;;;33.92;15.48;;;15.10;99.90;;;;;;5053825;28;20210;-85
2022/10/07 07:54:02;;;;;;;14.80;13.50;;;15.30;99.90;;;;;;5053487;28;20209;-86
2022/10/07 07:56:31;;;;;;;19.05;14.18;;;15.30;99.90;;;;;;5053522;28;20218;-85
2022/10/07 07:59:00;;;;;;;14.18;12.88;;;15.30;99.90;;;;;;5053326;28;20202;-87
2022/10/07 08:01:30;;;;;;;14.88;12.50;;;15.30;99.90;;;;;;5053677;28;20209;-86
2022/10/07 08:04:00;;;;;;;14.85;13.30;;;15.30;99.90;;;;;;5052660;28;20202;-86
2022/10/07 08:06:30;;;;;;;14.57;13.02;;;15.30;99.90;;;;;;5053276;28;20232;-86
2022/10/07 08:08:58;;;;;;;15.57;13.00;;;15.40;99.90;;;;;;5053222;28;20405;-86
2022/10/07 08:11:27;;;;;;;12.35;11.30;;;15.50;99.90;;;;;;5053357;28;20221;-86
2022/10/07 08:13:56;;;;;;;13.32;11.88;;;15.70;99.90;;;;;;5053038;28;20210;-86
2022/10/07 08:16:27;;;;;;;12.20;10.95;;;15.80;99.90;;;;;;5052895;28;20228;-85
2022/10/07 08:18:57;;;;;;;12.10;11.00;;;15.80;99.90;;;;;;5053087;28;20206;-86
2022/10/07 08:21:31;;;;;;;11.75;10.10;;;15.90;99.90;;;;;;5053241;28;20198;-85
2022/10/07 08:24:01;;;;;;;11.73;10.40;;;16.00;99.90;;;;;;5053048;28;20235;-86
2022/10/07 08:26:33;;;;;;;11.75;10.63;;;16.10;99.90;;;;;;5052559;28;20230;-86
2022/10/07 08:29:02;;;;;;;16.30;12.38;;;16.30;99.90;;;;;;5052897;28;20213;-86
2022/10/07 08:31:30;;;;;;;13.32;11.20;;;16.40;99.90;;;;;;5052877;28;20201;-86
2022/10/07 08:34:01;;;;;;;12.40;11.10;;;16.60;99.90;;;;;;5053038;28;20213;-86
2022/10/07 08:36:32;;;;;;;12.30;11.05;;;16.80;99.90;;;;;;5052848;28;20221;-86
2022/10/07 08:39:02;;;;;;;11.13;10.05;;;17.00;99.90;;;;;;5052627;28;20197;-85
2022/10/07 08:41:47;;;;;;;11.48;10.38;;;17.10;99.90;;;;;;5052919;28;20210;-86
2022/10/07 08:44:20;;;;;;;11.93;10.77;;;17.20;99.90;;;;;;5052425;28;20220;-86
2022/10/07 08:47:05;;;;;;;12.52;11.02;;;17.40;99.90;;;;;;5052473;28;20236;-86
2022/10/07 08:49:39;;;;;;;12.27;11.07;;;17.50;99.90;;;;;;5052468;28;20205;-86
2022/10/07 08:52:31;;;;;;;17.08;11.15;;;17.50;99.90;;;;;;5052628;28;20205;-87
2022/10/07 08:55:01;;;;;;;11.20;10.07;;;17.80;99.90;;;;;;5052311;28;20205;-86
2022/10/07 08:57:43;;;;;;;10.75;9.15;;;18.20;99.90;;;;;;5052530;28;20241;-86
2022/10/07 09:00:16;;;;;;;10.57;9.20;;;18.50;99.90;;;;;;5052808;28;20209;-86
2022/10/07 09:03:01;;;;;;;8.88;8.00;;;18.90;99.90;;;;;;5052801;28;20206;-86
2022/10/07 09:05:34;;;;;;;9.18;8.27;;;19.40;99.90;;;;;;5052662;28;20210;-87
2022/10/07 09:08:11;;;;;;;8.68;7.85;;;20.20;99.90;;;;;;5052149;28;20225;-87
2022/10/07 09:10:44;;;;;;;9.75;8.80;;;20.90;99.90;;;;;;5052592;28;20205;-86
2022/10/07 09:13:17;;;;;;;10.57;9.63;;;21.30;99.90;;;;;;5052236;28;20209;-87
2022/10/07 09:15:50;;;;;;;8.65;7.93;;;21.20;99.90;;;;;;5053613;28;20210;-87
2022/10/07 09:18:23;;;;;;;9.45;8.57;;;21.30;99.90;;;;;;5056174;28;20234;-86
2022/10/07 09:20:53;;;;;;;8.60;7.80;;;21.50;99.90;;;;;;5056357;28;20209;-86
2022/10/07 09:23:28;;;;;;;10.00;8.77;;;22.00;99.90;;;;;;5056239;28;20218;-85
2022/10/07 09:25:57;;;;;;;10.73;9.25;;;22.00;99.90;;;;;;5056108;28;20213;-85
2022/10/07 09:28:29;;;;;;;8.32;7.53;;;21.90;99.90;;;;;;5055666;28;20241;-86
2022/10/07 09:30:59;;;;;;;10.20;9.05;;;22.00;99.90;;;;;;5056272;28;20241;-85
2022/10/07 09:33:29;;;;;;;9.02;8.18;;;22.20;99.90;;;;;;5055802;28;20248;-85
2022/10/07 09:36:04;;;;;;;10.55;7.90;;;21.90;99.90;;;;;;5055872;28;20209;-85
2022/10/07 09:38:36;;;;;;;7.28;6.68;;;22.00;99.90;;;;;;5055820;28;20209;-86
2022/10/07 09:41:19;;;;;;;7.25;6.65;;;22.10;99.90;;;;;;5055783;28;20210;-84
2022/10/07 09:43:57;;;;;;;8.63;7.53;;;21.80;99.90;;;;;;5055845;28;20216;-85
2022/10/07 09:46:42;;;;;;;12.10;7.55;;;21.70;99.90;;;;;;5056120;28;20235;-85
2022/10/07 09:49:33;;;;;;;7.35;6.47;;;21.80;99.90;;;;;;5055476;28;20197;-85
2022/10/07 09:52:04;;;;;;;7.30;6.30;;;21.70;99.90;;;;;;5055663;28;20209;-85
2022/10/07 09:54:35;;;;;;;6.60;6.10;;;21.60;99.90;;;;;;5055678;28;20214;-85
2022/10/07 09:57:06;;;;;;;7.25;6.55;;;21.50;99.90;;;;;;5055519;28;20254;-86
2022/10/07 09:59:36;;;;;;;11.07;6.15;;;21.60;99.90;;;;;;5055749;28;20218;-85
2022/10/07 10:02:21;;;;;;;6.78;6.15;;;21.70;99.90;;;;;;5056134;28;20206;-86
2022/10/07 10:04:52;;;;;;;5.88;5.38;;;21.90;99.90;;;;;;5055797;28;20217;-86
2022/10/07 10:07:24;;;;;;;6.55;5.80;;;22.00;99.90;;;;;;5055203;28;20226;-86
2022/10/07 10:09:56;;;;;;;6.18;5.63;;;22.20;99.90;;;;;;5055330;28;20206;-85
2022/10/07 10:12:25;;;;;;;6.15;5.57;;;22.40;99.90;;;;;;5055567;28;20205;-85
2022/10/07 10:14:55;;;;;;;6.75;4.93;;;22.60;99.90;;;;;;5055262;28;20293;-86
2022/10/07 10:17:33;;;;;;;6.13;5.53;;;22.80;99.90;;;;;;5055049;28;20226;-86
2022/10/07 10:20:28;;;;;;;7.93;6.45;;;23.20;99.90;;;;;;5071766;28;20205;-86
2022/10/07 10:22:58;;;;;;;5.95;5.43;;;23.60;99.90;;;;;;5075360;28;20212;-86
2022/10/07 10:28:39;;;;;;;6.95;6.18;;;24.20;99.90;;;;;;5073813;28;20229;-86
2022/10/07 10:31:19;;;;;;;6.13;5.53;;;23.90;99.90;;;;;;5074816;28;20205;-86
2022/10/07 10:33:55;;;;;;;5.18;4.78;;;23.90;99.90;;;;;;5075051;28;20212;-86
2022/10/07 10:36:26;;;;;;;6.13;5.53;;;24.10;99.90;;;;;;5075094;28;20229;-86
2022/10/07 10:39:01;;;;;;;8.85;6.47;;;24.10;99.90;;;;;;5075115;28;20201;-86
2022/10/07 10:41:39;;;;;;;6.07;5.47;;;24.40;99.90;;;;;;5075279;28;20216;-86
2022/10/07 10:44:32;;;;;;;8.82;5.63;;;24.60;99.90;;;;;;5074876;28;20208;-86
2022/10/07 10:47:07;;;;;;;7.30;5.72;;;24.70;99.90;;;;;;5074600;28;20225;-86
2022/10/07 10:49:41;;;;;;;5.72;5.22;;;24.90;99.90;;;;;;5074446;28;20204;-86
2022/10/07 10:52:26;;;;;;;6.47;5.78;;;25.10;99.90;;;;;;5074816;28;20208;-86
2022/10/07 10:55:20;;;;;;;6.03;5.53;;;25.50;99.90;;;;;;5074854;28;20205;-86
2022/10/07 10:58:01;;;;;;;6.32;5.70;;;25.70;99.90;;;;;;5073078;28;20233;-86
2022/10/07 11:00:37;;;;;;;6.13;5.50;;;25.50;99.90;;;;;;5074786;28;20200;-86
2022/10/07 11:03:40;;;;;;;6.55;4.82;;;25.50;99.90;;;;;;5074783;28;20209;-86
2022/10/07 11:06:11;;;;;;;5.57;4.32;;;25.50;99.90;;;;;;5073124;28;20287;-85
2022/10/07 11:08:41;;;;;;;4.38;4.07;;;25.80;99.90;;;;;;5074166;28;20224;-86
2022/10/07 11:11:15;;;;;;;5.38;4.82;;;25.60;99.90;;;;;;5074437;28;20215;-85
2022/10/07 11:13:49;;;;;;;5.20;4.53;;;25.60;99.90;;;;;;5074542;28;20216;-86
2022/10/07 11:16:21;;;;;;;4.82;4.43;;;25.70;99.90;;;;;;5074253;28;20205;-86
2022/10/07 11:18:55;;;;;;;4.53;4.13;;;25.60;99.90;;;;;;5074071;28;20209;-86
2022/10/07 11:21:29;;;;;;;5.20;4.70;;;25.80;99.90;;;;;;5075119;28;20239;-86
2022/10/07 11:24:02;;;;;;;4.75;4.35;;;26.20;99.90;;;;;;5074717;28;20216;-86
2022/10/07 11:26:36;;;;;;;5.30;4.78;;;26.50;99.90;;;;;;5074201;28;20243;-85
2022/10/07 11:29:16;;;;;;;5.78;4.45;;;26.60;99.90;;;;;;5073646;28;20232;-85
2022/10/07 11:31:52;;;;;;;4.57;4.18;;;26.40;99.90;;;;;;5073933;28;20212;-85
2022/10/07 11:34:29;;;;;;;5.72;5.22;;;26.20;99.90;;;;;;5074433;28;20220;-86
2022/10/07 11:37:04;;;;;;;5.53;5.03;;;26.00;99.90;;;;;;5073872;28;20221;-86
2022/10/07 11:39:37;;;;;;;4.82;4.30;;;25.80;99.90;;;;;;5073553;28;20200;-85
2022/10/07 11:42:14;;;;;;;6.60;5.28;;;25.70;99.90;;;;;;5073623;28;20205;-85
2022/10/07 11:44:53;;;;;;;4.55;4.15;;;25.70;99.90;;;;;;5073822;28;20208;-85
2022/10/07 11:47:24;;;;;;;4.85;4.45;;;25.30;99.90;;;;;;5073536;28;20243;-85
2022/10/07 11:49:59;;;;;;;6.10;5.05;;;25.00;99.90;;;;;;5073440;28;20232;-86
2022/10/07 11:52:30;;;;;;;4.10;3.75;;;25.00;99.90;;;;;;5073777;28;20212;-86
2022/10/07 11:55:07;;;;;;;5.53;4.63;;;25.00;99.90;;;;;;5073339;28;20208;-87
2022/10/07 11:57:42;;;;;;;4.18;3.78;;;25.20;99.90;;;;;;5073578;28;20263;-87
2022/10/07 12:00:25;;;;;;;8.88;3.97;;;25.30;99.90;;;;;;5073038;28;20209;-87
2022/10/07 12:02:53;;;;;;;4.35;4.03;;;25.40;99.90;;;;;;5073377;28;20207;-86
2022/10/07 12:05:56;;;;;;;4.75;4.32;;;25.60;99.90;;;;;;5073162;28;20209;-86
2022/10/07 12:08:29;;;;;;;4.18;3.78;;;25.90;99.90;;;;;;5072773;28;20244;-86
2022/10/07 12:11:43;;;;;;;5.15;4.38;;;25.90;99.90;;;;;;5073255;28;20204;-86
2022/10/07 12:14:43;;;;;;;6.40;4.45;;;25.90;99.90;;;;;;5073169;28;20200;-86
2022/10/07 12:17:29;;;;;;;5.65;4.00;;;25.80;99.90;;;;;;5073092;28;20229;-87
2022/10/07 12:20:43;;;;;;;5.65;4.72;;;25.80;99.90;;;;;;5072826;28;20282;-86
2022/10/07 12:23:42;;;;;;;4.50;4.10;;;25.80;99.90;;;;;;5073087;28;20216;-87
2022/10/07 12:26:52;;;;;;;4.78;4.13;;;26.10;99.90;;;;;;5049734;28;20248;-87
2022/10/07 12:29:40;;;;;;;4.00;3.58;;;26.30;99.90;;;;;;5072881;28;20232;-87
2022/10/07 12:32:41;;;;;;;5.13;3.95;;;26.50;99.90;;;;;;5072941;28;20209;-87
2022/10/07 12:35:43;;;;;;;5.40;3.83;;;26.60;99.90;;;;;;5072953;28;20212;-87
2022/10/07 12:38:17;;;;;;;4.10;3.70;;;26.70;99.90;;;;;;5030823;28;20234;-87
2022/10/07 12:40:51;;;;;;;4.35;3.95;;;26.70;99.90;;;;;;5065562;28;20296;-87
2022/10/07 12:43:27;;;;;;;10.85;3.63;;;26.60;99.90;;;;;;5073862;28;20208;-87
2022/10/07 12:45:57;;;;;;;4.80;3.53;;;26.60;99.90;;;;;;5073061;28;20230;-87
2022/10/07 12:48:30;;;;;;;4.60;3.63;;;26.40;99.90;;;;;;5072470;28;20220;-87
2022/10/07 12:51:03;;;;;;;4.10;3.70;;;26.40;99.90;;;;;;5071936;28;20212;-86
2022/10/07 12:53:40;;;;;;;3.50;3.20;;;26.30;99.90;;;;;;5074058;28;20205;-86
2022/10/07 12:56:13;;;;;;;6.22;3.83;;;26.20;99.90;;;;;;5074222;28;20200;-87
2022/10/07 13:02:25;;;;;;;5.68;3.55;;;25.90;99.90;;;;;;5072888;28;20235;-86
2022/10/07 13:05:18;;;;;;;2.92;2.72;;;26.30;99.90;;;;;;5072521;28;20235;-87
2022/10/07 13:08:16;;;;;;;4.43;2.95;;;26.30;99.90;;;;;;5072362;28;20240;-86
2022/10/07 13:11:09;;;;;;;4.70;4.07;;;26.20;99.90;;;;;;5054450;28;20205;-86
2022/10/07 13:13:44;;;;;;;4.55;3.70;;;25.60;99.90;;;;;;5051655;28;20204;-86
2022/10/07 13:16:19;;;;;;;5.15;2.95;;;25.60;99.90;;;;;;5072239;28;20204;-87
2022/10/07 13:18:55;;;;;;;4.00;3.47;;;25.70;99.90;;;;;;5072585;28;20200;-87
2022/10/07 13:21:30;;;;;;;4.10;3.35;;;25.70;99.90;;;;;;5072290;28;20201;-87
2022/10/07 13:23:59;;;;;;;3.65;3.30;;;25.50;99.90;;;;;;5072410;28;20279;-86
2022/10/07 13:26:28;;;;;;;3.92;3.10;;;25.50;99.90;;;;;;5072136;28;20241;-87